createdAt,value
2023-05-07T00:00:46.688Z,12.30
2023-05-07T00:03:15.072Z,12.43
2023-05-07T00:05:42.632Z,12.14
2023-05-07T00:08:09.863Z,12.10
2023-05-07T00:10:37.196Z,12.39
2023-05-07T00:13:04.430Z,12.29
2023-05-07T00:15:31.721Z,12.16
2023-05-07T00:18:00.570Z,12.27
2023-05-07T00:20:28.178Z,12.27
2023-05-07T00:22:55.431Z,12.10
2023-05-07T00:25:22.788Z,12.46
2023-05-07T00:27:50.158Z,12.51
2023-05-07T00:30:17.516Z,12.57
2023-05-07T00:32:46.700Z,12.62
2023-05-07T00:35:14.035Z,12.58
2023-05-07T00:37:41.629Z,12.33
2023-05-07T00:40:09.981Z,12.32
2023-05-07T00:42:37.875Z,12.17
2023-05-07T00:45:05.573Z,12.19
2023-05-07T00:47:33.148Z,12.11
2023-05-07T00:50:00.636Z,12.16
2023-05-07T00:52:28.852Z,12.15
2023-05-07T00:54:56.732Z,12.26
2023-05-07T00:57:26.538Z,12.22
2023-05-07T00:59:54.160Z,12.31
2023-05-07T01:02:21.539Z,12.37
2023-05-07T01:04:48.775Z,12.32
2023-05-07T01:07:16.745Z,12.21
2023-05-07T01:09:43.938Z,12.23
2023-05-07T01:12:12.376Z,12.29
2023-05-07T01:14:39.633Z,12.25
2023-05-07T01:17:07.808Z,12.23
2023-05-07T01:19:35.883Z,12.27
2023-05-07T01:22:08.895Z,12.14
2023-05-07T01:24:45.210Z,12.07
2023-05-07T01:27:13.297Z,12.05
2023-05-07T01:29:41.043Z,12.09
2023-05-07T01:32:09.789Z,12.08
2023-05-07T01:34:38.496Z,12.03
2023-05-07T01:37:06.151Z,12.12
2023-05-07T01:39:34.411Z,12.05
2023-05-07T01:42:01.826Z,12.11
2023-05-07T01:44:29.630Z,12.07
2023-05-07T01:46:58.459Z,11.98
2023-05-07T01:49:26.148Z,11.94
2023-05-07T01:51:53.587Z,11.90
2023-05-07T01:54:21.772Z,11.71
2023-05-07T01:56:50.037Z,11.75
2023-05-07T01:59:17.552Z,11.93
2023-05-07T02:01:45.639Z,12.00
2023-05-07T02:04:13.368Z,12.04
2023-05-07T02:06:40.791Z,12.08
2023-05-07T02:09:10.114Z,12.11
2023-05-07T02:11:39.005Z,12.06
2023-05-07T02:14:06.539Z,12.02
2023-05-07T02:16:33.981Z,11.89
2023-05-07T02:19:01.822Z,11.81
2023-05-07T02:21:31.124Z,11.75
2023-05-07T02:23:58.512Z,11.68
2023-05-07T02:26:26.984Z,11.66
2023-05-07T02:28:54.877Z,11.60
2023-05-07T02:31:22.384Z,11.48
2023-05-07T02:33:49.775Z,11.76
2023-05-07T02:36:17.337Z,11.78
2023-05-07T02:38:55.794Z,11.65
2023-05-07T02:41:23.174Z,11.72
2023-05-07T02:43:50.488Z,11.76
2023-05-07T02:46:18.378Z,11.51
2023-05-07T02:48:50.021Z,11.52
2023-05-07T02:51:24.150Z,11.48
2023-05-07T02:53:54.184Z,11.38
2023-05-07T02:56:22.127Z,11.37
2023-05-07T02:58:49.383Z,11.43
2023-05-07T03:01:18.229Z,11.34
2023-05-07T03:04:11.867Z,11.23
2023-05-07T03:06:39.158Z,11.13
2023-05-07T03:09:06.444Z,11.02
2023-05-07T03:11:33.764Z,10.91
2023-05-07T03:14:01.466Z,10.85
2023-05-07T03:16:29.279Z,11.00
2023-05-07T03:18:56.646Z,11.19
2023-05-07T03:21:23.971Z,11.37
2023-05-07T03:23:51.225Z,10.98
2023-05-07T03:26:18.569Z,11.11
2023-05-07T03:28:46.350Z,11.27
2023-05-07T03:31:16.027Z,11.09
2023-05-07T03:33:58.481Z,11.10
2023-05-07T03:36:29.760Z,11.13
2023-05-07T03:38:57.678Z,11.14
2023-05-07T03:41:27.849Z,11.13
2023-05-07T03:43:55.477Z,11.09
2023-05-07T03:46:22.880Z,10.98
2023-05-07T03:48:50.205Z,10.96
2023-05-07T03:51:18.315Z,10.90
2023-05-07T03:53:45.774Z,11.08
2023-05-07T03:56:13.495Z,11.08
2023-05-07T03:58:42.146Z,11.22
2023-05-07T04:01:12.549Z,10.99
2023-05-07T04:03:40.363Z,11.10
2023-05-07T04:06:08.308Z,10.96
2023-05-07T04:08:37.067Z,11.06
2023-05-07T04:11:06.467Z,11.00
2023-05-07T04:13:36.059Z,10.94
2023-05-07T04:16:08.008Z,11.20
2023-05-07T04:18:37.169Z,11.08
2023-05-07T04:21:05.678Z,11.07
2023-05-07T04:23:34.670Z,11.02
2023-05-07T04:26:04.859Z,11.03
2023-05-07T04:28:41.921Z,11.13
2023-05-07T04:31:09.454Z,11.04
2023-05-07T04:33:38.494Z,10.83
2023-05-07T04:36:08.869Z,11.01
2023-05-07T04:38:43.213Z,11.02
2023-05-07T04:41:14.036Z,11.18
2023-05-07T04:43:42.845Z,11.16
2023-05-07T04:46:12.079Z,11.28
2023-05-07T04:48:39.760Z,11.32
2023-05-07T04:51:07.810Z,11.48
2023-05-07T04:53:35.188Z,11.46
2023-05-07T04:56:02.839Z,11.68
2023-05-07T04:58:40.001Z,11.52
2023-05-07T05:01:07.770Z,11.80
2023-05-07T05:03:35.282Z,11.76
2023-05-07T05:06:03.030Z,11.81
2023-05-07T05:08:33.986Z,11.84
2023-05-07T05:11:03.941Z,11.88
2023-05-07T05:13:33.901Z,11.95
2023-05-07T05:16:05.344Z,12.00
2023-05-07T05:18:34.118Z,12.25
2023-05-07T05:21:01.942Z,12.23
2023-05-07T05:23:30.198Z,12.01
2023-05-07T05:25:58.902Z,12.01
2023-05-07T05:28:29.099Z,12.10
2023-05-07T05:30:57.120Z,12.00
2023-05-07T05:33:26.426Z,11.88
2023-05-07T05:35:55.818Z,11.84
2023-05-07T05:38:23.237Z,11.75
2023-05-07T05:40:51.334Z,11.76
2023-05-07T05:43:19.079Z,11.75
2023-05-07T05:45:46.285Z,11.28
2023-05-07T05:48:13.754Z,11.25
2023-05-07T05:50:43.205Z,11.37
2023-05-07T05:53:11.070Z,11.17
2023-05-07T05:55:39.443Z,11.21
2023-05-07T05:58:07.014Z,11.30
2023-05-07T06:00:38.294Z,11.69
2023-05-07T06:03:07.177Z,11.97
2023-05-07T06:05:36.109Z,11.65
2023-05-07T06:08:03.717Z,11.68
2023-05-07T06:10:33.977Z,11.78
2023-05-07T06:13:01.717Z,11.32
2023-05-07T06:15:30.025Z,11.42
2023-05-07T06:18:03.534Z,11.42
2023-05-07T06:20:30.785Z,11.40
2023-05-07T06:22:59.550Z,11.55
2023-05-07T06:25:27.034Z,11.53
2023-05-07T06:27:54.471Z,11.59
2023-05-07T06:30:21.983Z,11.50
2023-05-07T06:32:49.396Z,11.35
2023-05-07T06:35:17.115Z,11.48
2023-05-07T06:37:44.388Z,11.55
2023-05-07T06:40:17.868Z,11.55
2023-05-07T06:42:47.066Z,11.54
2023-05-07T06:45:34.651Z,11.53
2023-05-07T06:48:02.203Z,11.80
2023-05-07T06:50:33.086Z,11.66
2023-05-07T06:53:00.511Z,11.66
2023-05-07T06:55:27.912Z,11.67
2023-05-07T06:57:56.130Z,11.65
2023-05-07T07:00:25.379Z,11.50
2023-05-07T07:02:56.609Z,11.53
2023-05-07T07:05:27.965Z,11.56
2023-05-07T07:07:56.203Z,11.48
2023-05-07T07:10:24.784Z,11.37
2023-05-07T07:12:53.940Z,11.35
2023-05-07T07:15:22.306Z,11.22
2023-05-07T07:17:51.067Z,11.16
2023-05-07T07:20:18.507Z,11.20
2023-05-07T07:22:46.765Z,11.15
2023-05-07T07:25:15.614Z,11.25
2023-05-07T07:27:43.168Z,11.01
2023-05-07T07:30:11.614Z,11.06
2023-05-07T07:32:41.920Z,11.11
2023-05-07T07:35:10.155Z,11.00
2023-05-07T07:37:38.660Z,11.00
2023-05-07T07:40:07.386Z,11.10
2023-05-07T07:42:35.527Z,11.01
2023-05-07T07:45:03.888Z,11.18
2023-05-07T07:47:34.572Z,11.34
2023-05-07T07:50:02.066Z,11.21
2023-05-07T07:52:29.785Z,11.24
2023-05-07T07:54:57.210Z,11.28
2023-05-07T07:57:24.749Z,11.22
2023-05-07T07:59:52.558Z,11.31
2023-05-07T08:02:20.776Z,11.36
2023-05-07T08:04:49.571Z,11.39
2023-05-07T08:07:21.547Z,11.48
2023-05-07T08:09:50.034Z,11.33
2023-05-07T08:12:21.452Z,11.50
2023-05-07T08:14:49.856Z,11.61
2023-05-07T08:17:17.540Z,11.58
2023-05-07T08:19:45.990Z,11.38
2023-05-07T08:22:15.178Z,11.48
2023-05-07T08:24:42.648Z,11.35
2023-05-07T08:27:10.595Z,11.37
2023-05-07T08:29:39.233Z,11.38
2023-05-07T08:32:06.586Z,11.32
2023-05-07T08:34:33.997Z,11.21
2023-05-07T08:37:04.647Z,11.21
2023-05-07T08:39:33.278Z,11.15
2023-05-07T08:42:05.859Z,10.90
2023-05-07T08:44:38.427Z,10.98
2023-05-07T08:47:08.781Z,11.16
2023-05-07T08:49:37.913Z,11.22
2023-05-07T08:52:09.703Z,10.96
2023-05-07T08:54:39.718Z,11.13
2023-05-07T08:57:09.420Z,10.74
2023-05-07T08:59:38.106Z,10.85
2023-05-07T09:02:10.547Z,10.77
2023-05-07T09:04:38.331Z,10.62
2023-05-07T09:07:06.592Z,10.64
2023-05-07T09:09:38.947Z,10.67
2023-05-07T09:12:07.740Z,10.80
2023-05-07T09:14:36.975Z,10.72
2023-05-07T09:17:05.383Z,10.88
2023-05-07T09:19:32.989Z,10.64
2023-05-07T09:22:05.023Z,10.76
2023-05-07T09:24:41.793Z,10.73
2023-05-07T09:27:14.606Z,10.59
2023-05-07T09:29:45.777Z,10.76
2023-05-07T09:32:17.039Z,10.88
2023-05-07T09:34:44.358Z,10.71
2023-05-07T09:37:15.510Z,10.58
2023-05-07T09:39:45.964Z,10.59
2023-05-07T09:42:18.453Z,10.50
2023-05-07T09:44:46.168Z,10.48
2023-05-07T09:47:21.141Z,10.68
2023-05-07T09:49:55.309Z,10.77
2023-05-07T09:52:22.827Z,10.51
2023-05-07T09:54:54.127Z,10.60
2023-05-07T09:57:25.176Z,10.34
2023-05-07T09:59:59.094Z,10.46
2023-05-07T10:02:31.910Z,10.39
2023-05-07T10:05:01.666Z,10.50
2023-05-07T10:07:32.645Z,10.36
2023-05-07T10:10:07.540Z,10.15
2023-05-07T10:12:41.547Z,10.47
2023-05-07T10:15:15.711Z,10.52
2023-05-07T10:17:48.059Z,10.08
2023-05-07T10:20:16.457Z,10.11
2023-05-07T10:22:50.975Z,9.79
2023-05-07T10:25:34.300Z,10.58
2023-05-07T10:28:12.206Z,11.10
2023-05-07T10:31:29.230Z,10.92
2023-05-07T10:33:58.054Z,10.84
2023-05-07T10:36:27.444Z,11.12
2023-05-07T10:38:56.085Z,10.92
2023-05-07T10:41:23.495Z,10.94
2023-05-07T10:43:52.353Z,11.02
2023-05-07T10:46:25.003Z,11.02
2023-05-07T10:49:12.892Z,10.85
2023-05-07T10:52:20.103Z,10.71
2023-05-07T10:55:18.715Z,10.79
2023-05-07T10:58:32.579Z,10.59
2023-05-07T11:01:57.252Z,10.62
2023-05-07T11:05:25.776Z,10.42
2023-05-07T11:08:10.497Z,10.52
2023-05-07T11:10:56.497Z,10.35
2023-05-07T11:13:53.178Z,10.59
2023-05-07T11:16:45.549Z,10.32
2023-05-07T11:19:55.883Z,10.10
2023-05-07T11:22:41.043Z,10.23
2023-05-07T11:25:20.672Z,10.37
2023-05-07T11:27:54.208Z,10.21
2023-05-07T11:30:21.655Z,10.55
2023-05-07T11:32:50.072Z,10.70
2023-05-07T11:35:19.475Z,10.60
2023-05-07T11:37:50.106Z,10.60
2023-05-07T11:40:18.949Z,10.61
2023-05-07T11:42:46.307Z,10.46
2023-05-07T11:45:23.724Z,10.40
2023-05-07T11:47:51.231Z,10.37
2023-05-07T11:50:18.561Z,10.60
2023-05-07T11:52:53.514Z,10.40
2023-05-07T11:55:21.024Z,10.48
2023-05-07T11:57:48.377Z,10.59
2023-05-07T12:00:17.950Z,10.73
2023-05-07T12:02:47.003Z,10.85
2023-05-07T12:05:14.802Z,10.48
2023-05-07T12:07:42.457Z,10.43
2023-05-07T12:10:12.577Z,10.20
2023-05-07T12:12:47.022Z,10.52
2023-05-07T12:15:18.349Z,10.55
2023-05-07T12:17:46.073Z,10.68
2023-05-07T12:20:13.927Z,10.29
2023-05-07T12:22:42.188Z,10.18
2023-05-07T12:25:10.582Z,10.37
2023-05-07T12:27:40.248Z,10.46
2023-05-07T12:30:11.407Z,10.61
2023-05-07T12:32:38.961Z,10.11
2023-05-07T12:35:08.320Z,10.40
2023-05-07T12:37:37.305Z,10.49
2023-05-07T12:40:12.688Z,10.63
2023-05-07T12:42:41.926Z,10.57
2023-05-07T12:45:12.370Z,10.58
2023-05-07T12:47:40.561Z,10.97
2023-05-07T12:50:08.712Z,10.79
2023-05-07T12:52:36.334Z,10.75
2023-05-07T12:55:09.056Z,10.27
2023-05-07T12:57:51.644Z,10.30
2023-05-07T13:00:33.354Z,10.34
2023-05-07T13:03:01.131Z,10.49
2023-05-07T13:05:28.462Z,10.25
2023-05-07T13:07:57.571Z,10.55
2023-05-07T13:10:25.597Z,10.30
2023-05-07T13:12:53.720Z,10.52
2023-05-07T13:15:21.410Z,10.35
2023-05-07T13:17:48.793Z,10.37
2023-05-07T13:20:16.633Z,10.31
2023-05-07T13:22:43.934Z,10.26
2023-05-07T13:25:11.655Z,10.22
2023-05-07T13:27:39.266Z,10.00
2023-05-07T13:30:07.757Z,10.11
2023-05-07T13:32:35.029Z,10.12
2023-05-07T13:35:02.782Z,10.20
2023-05-07T13:37:30.148Z,10.04
2023-05-07T13:39:57.397Z,9.77
2023-05-07T13:42:24.734Z,9.66
2023-05-07T13:44:52.021Z,9.87
2023-05-07T13:47:19.280Z,10.11
2023-05-07T13:49:46.613Z,10.05
2023-05-07T13:52:13.933Z,10.04
2023-05-07T13:54:41.494Z,10.07
2023-05-07T13:57:08.887Z,10.13
2023-05-07T13:59:36.163Z,10.11
2023-05-07T14:02:03.643Z,9.95
2023-05-07T14:04:32.367Z,9.59
2023-05-07T14:06:59.660Z,9.53
2023-05-07T14:09:26.974Z,9.65
2023-05-07T14:11:54.300Z,9.86
2023-05-07T14:14:21.544Z,9.57
2023-05-07T14:16:50.722Z,9.53
2023-05-07T14:19:18.489Z,9.68
2023-05-07T14:21:45.855Z,9.89
2023-05-07T14:24:13.527Z,10.08
2023-05-07T14:26:41.104Z,10.04
2023-05-07T14:29:08.323Z,10.05
2023-05-07T14:31:35.967Z,9.86
2023-05-07T14:34:03.465Z,9.98
2023-05-07T14:36:32.837Z,10.12
2023-05-07T14:39:00.534Z,10.10
2023-05-07T14:41:28.994Z,9.77
2023-05-07T14:43:56.454Z,9.74
2023-05-07T14:46:25.060Z,9.62
2023-05-07T14:48:52.354Z,9.51
2023-05-07T14:51:19.732Z,9.65
2023-05-07T14:53:47.063Z,9.66
2023-05-07T14:56:14.275Z,9.56
2023-05-07T14:58:41.658Z,9.42
2023-05-07T15:01:09.030Z,9.42
2023-05-07T15:03:37.014Z,9.46
2023-05-07T15:06:04.423Z,9.23
2023-05-07T15:08:31.651Z,8.87
2023-05-07T15:10:59.077Z,8.66
2023-05-07T15:13:26.496Z,8.85
2023-05-07T15:15:53.952Z,8.68
2023-05-07T15:18:22.816Z,8.76
2023-05-07T15:20:50.539Z,9.07
2023-05-07T15:23:17.880Z,9.23
2023-05-07T15:25:50.334Z,9.22
2023-05-07T15:28:19.920Z,8.76
2023-05-07T15:30:47.208Z,8.65
2023-05-07T15:33:14.489Z,8.52
2023-05-07T15:35:41.847Z,8.73
2023-05-07T15:38:09.797Z,8.77
2023-05-07T15:40:38.794Z,8.87
2023-05-07T15:43:06.004Z,8.83
2023-05-07T15:45:33.588Z,9.16
2023-05-07T15:48:01.284Z,9.09
2023-05-07T15:50:29.702Z,9.12
2023-05-07T15:52:57.003Z,9.19
2023-05-07T15:55:24.650Z,8.87
2023-05-07T15:57:52.750Z,8.89
2023-05-07T16:00:20.559Z,8.63
2023-05-07T16:02:47.968Z,8.40
2023-05-07T16:05:15.975Z,8.53
2023-05-07T16:07:44.461Z,8.59
2023-05-07T16:10:12.561Z,8.47
2023-05-07T16:12:40.196Z,8.33
2023-05-07T16:15:08.661Z,8.42
2023-05-07T16:17:36.088Z,8.39
2023-05-07T16:20:06.573Z,8.18
2023-05-07T16:22:33.900Z,7.96
2023-05-07T16:25:01.821Z,8.37
2023-05-07T16:27:29.086Z,8.64
2023-05-07T16:29:56.477Z,8.30
2023-05-07T16:32:23.868Z,8.27
2023-05-07T16:34:51.775Z,8.66
2023-05-07T16:37:19.188Z,8.27
2023-05-07T16:39:46.769Z,8.14
2023-05-07T16:42:14.263Z,8.40
2023-05-07T16:44:41.576Z,8.38
2023-05-07T16:47:08.820Z,8.27
2023-05-07T16:49:36.035Z,8.57
2023-05-07T16:52:05.207Z,8.32
2023-05-07T16:54:32.632Z,8.30
2023-05-07T16:57:00.029Z,8.26
2023-05-07T16:59:31.460Z,8.15
2023-05-07T17:01:59.512Z,8.10
2023-05-07T17:04:27.082Z,8.03
2023-05-07T17:06:54.498Z,8.09
2023-05-07T17:09:21.665Z,8.18
2023-05-07T17:11:48.970Z,7.97
2023-05-07T17:14:16.299Z,7.99
2023-05-07T17:16:43.692Z,8.09
2023-05-07T17:19:10.978Z,8.24
2023-05-07T17:21:38.256Z,8.02
2023-05-07T17:24:06.316Z,8.23
2023-05-07T17:26:36.438Z,8.29
2023-05-07T17:29:04.485Z,8.18
2023-05-07T17:31:31.985Z,8.18
2023-05-07T17:33:59.320Z,8.16
2023-05-07T17:36:26.853Z,8.06
2023-05-07T17:38:54.214Z,7.76
2023-05-07T17:41:22.707Z,7.78
2023-05-07T17:43:50.095Z,7.86
2023-05-07T17:46:18.395Z,8.13
2023-05-07T17:48:45.831Z,8.41
2023-05-07T17:51:13.275Z,8.38
2023-05-07T17:53:40.598Z,8.26
2023-05-07T17:56:08.220Z,8.23
2023-05-07T17:58:42.759Z,8.26
2023-05-07T18:01:15.243Z,8.04
2023-05-07T18:03:42.912Z,7.93
2023-05-07T18:06:11.222Z,8.24
2023-05-07T18:08:38.595Z,8.28
2023-05-07T18:11:06.057Z,8.23
2023-05-07T18:13:33.506Z,7.96
2023-05-07T18:16:01.040Z,8.15
2023-05-07T18:18:30.820Z,8.14
2023-05-07T18:20:58.525Z,8.02
2023-05-07T18:23:26.266Z,7.96
2023-05-07T18:25:54.030Z,8.07
2023-05-07T18:28:21.341Z,7.97
2023-05-07T18:30:48.661Z,7.90
2023-05-07T18:33:15.998Z,7.62
2023-05-07T18:35:43.444Z,7.82
2023-05-07T18:38:11.253Z,7.83
2023-05-07T18:40:43.998Z,7.99
2023-05-07T18:43:11.906Z,7.92
2023-05-07T18:45:39.405Z,8.07
2023-05-07T18:48:07.451Z,7.82
2023-05-07T18:50:34.842Z,8.03
2023-05-07T18:53:02.809Z,8.23
2023-05-07T18:55:30.079Z,7.48
2023-05-07T18:57:57.358Z,7.51
2023-05-07T19:00:24.838Z,7.72
2023-05-07T19:02:52.279Z,7.70
2023-05-07T19:05:19.900Z,7.79
2023-05-07T19:07:47.343Z,7.69
2023-05-07T19:10:15.892Z,7.52
2023-05-07T19:12:43.173Z,7.43
2023-05-07T19:15:11.162Z,7.44
2023-05-07T19:17:38.527Z,7.53
2023-05-07T19:22:35.404Z,7.75
2023-05-07T19:25:02.934Z,7.90
2023-05-07T19:27:30.290Z,7.75
2023-05-07T19:29:57.684Z,7.77
2023-05-07T19:32:25.608Z,7.78
2023-05-07T19:34:52.973Z,7.58
2023-05-07T19:37:24.174Z,7.90
2023-05-07T19:39:52.959Z,7.58
2023-05-07T19:42:20.260Z,7.64
2023-05-07T19:44:47.558Z,7.72
2023-05-07T19:47:16.227Z,7.92
2023-05-07T19:49:43.400Z,7.66
2023-05-07T19:52:10.747Z,7.65
2023-05-07T19:54:38.093Z,7.68
2023-05-07T19:57:05.434Z,7.56
2023-05-07T19:59:32.651Z,7.43
2023-05-07T20:02:00.010Z,7.62
2023-05-07T20:04:31.985Z,7.65
2023-05-07T20:07:00.614Z,7.60
2023-05-07T20:09:28.049Z,7.51
2023-05-07T20:11:55.289Z,7.58
2023-05-07T20:14:22.752Z,7.53
2023-05-07T20:16:50.190Z,7.67
2023-05-07T20:19:18.668Z,7.40
2023-05-07T20:21:46.220Z,6.98
2023-05-07T20:24:13.514Z,7.42
2023-05-07T20:26:41.399Z,7.42
2023-05-07T20:29:08.638Z,7.66
2023-05-07T20:31:36.230Z,7.61
2023-05-07T20:34:03.667Z,7.46
2023-05-07T20:36:30.864Z,7.59
2023-05-07T20:38:58.064Z,7.71
2023-05-07T20:41:25.604Z,7.77
2023-05-07T20:43:52.888Z,7.65
2023-05-07T20:46:23.310Z,7.52
2023-05-07T20:48:51.140Z,7.42
2023-05-07T20:51:18.429Z,7.46
2023-05-07T20:53:47.502Z,7.58
2023-05-07T20:56:16.112Z,7.60
2023-05-07T20:58:43.378Z,7.71
2023-05-07T21:01:11.047Z,7.58
2023-05-07T21:03:38.309Z,7.78
2023-05-07T21:06:05.672Z,7.62
2023-05-07T21:08:33.052Z,7.41
2023-05-07T21:11:01.406Z,7.06
2023-05-07T21:13:28.914Z,7.30
2023-05-07T21:15:56.168Z,7.22
2023-05-07T21:18:25.327Z,7.44
2023-05-07T21:20:52.672Z,7.39
2023-05-07T21:23:19.897Z,7.50
2023-05-07T21:25:48.276Z,7.52
2023-05-07T21:28:15.550Z,7.40
2023-05-07T21:30:42.833Z,7.44
2023-05-07T21:33:10.326Z,7.61
2023-05-07T21:35:37.618Z,7.71
2023-05-07T21:38:04.941Z,7.62
2023-05-07T21:40:32.169Z,7.50
2023-05-07T21:43:00.736Z,7.53
2023-05-07T21:45:28.022Z,7.56
2023-05-07T21:47:55.712Z,7.69
2023-05-07T21:50:23.182Z,7.53
2023-05-07T21:52:50.757Z,7.34
2023-05-07T21:55:19.023Z,7.64
2023-05-07T21:57:57.454Z,7.41
2023-05-07T22:00:33.016Z,7.30
2023-05-07T22:03:01.179Z,7.32
2023-05-07T22:05:28.637Z,7.38
2023-05-07T22:07:55.852Z,7.28
2023-05-07T22:10:23.309Z,7.14
2023-05-07T22:12:50.714Z,7.14
2023-05-07T22:15:18.346Z,7.22
2023-05-07T22:17:45.746Z,7.35
2023-05-07T22:20:13.547Z,7.12
2023-05-07T22:22:55.940Z,7.38
2023-05-07T22:25:24.635Z,7.32
2023-05-07T22:27:52.309Z,7.36
2023-05-07T22:30:19.651Z,7.46
2023-05-07T22:32:46.893Z,7.37
2023-05-07T22:35:14.190Z,7.52
2023-05-07T22:37:41.384Z,7.32
2023-05-07T22:40:09.433Z,6.93
2023-05-07T22:42:36.663Z,6.96
2023-05-07T22:45:04.222Z,6.94
2023-05-07T22:47:31.612Z,7.05
2023-05-07T22:49:58.902Z,7.34
2023-05-07T22:52:26.182Z,7.29
2023-05-07T22:54:53.408Z,7.29
2023-05-07T22:57:20.790Z,7.28
2023-05-07T22:59:48.049Z,7.34
2023-05-07T23:02:15.319Z,7.29
2023-05-07T23:04:42.714Z,7.07
2023-05-07T23:07:10.060Z,7.17
2023-05-07T23:09:37.326Z,7.34
2023-05-07T23:12:05.169Z,7.21
2023-05-07T23:14:32.681Z,7.11
2023-05-07T23:16:59.993Z,7.03
2023-05-07T23:19:27.403Z,7.06
2023-05-07T23:21:54.710Z,7.11
2023-05-07T23:24:21.836Z,7.31
2023-05-07T23:26:49.099Z,6.89
2023-05-07T23:29:16.357Z,7.00
2023-05-07T23:31:43.640Z,6.93
2023-05-07T23:34:10.936Z,7.30
2023-05-07T23:36:38.318Z,7.23
2023-05-07T23:39:05.670Z,7.23
2023-05-07T23:41:33.048Z,6.89
2023-05-07T23:44:00.297Z,6.90
2023-05-07T23:46:28.031Z,6.79
2023-05-07T23:48:55.407Z,7.00
2023-05-07T23:51:22.654Z,7.13
2023-05-07T23:53:49.986Z,7.31
2023-05-07T23:56:17.172Z,7.09
2023-05-07T23:58:44.432Z,7.05
